createdAt,value
2017-05-21T00:00:00.054Z,0
2017-05-21T00:00:40.652Z,0
2017-05-21T00:01:21.250Z,0
2017-05-21T00:02:01.852Z,0
2017-05-21T00:02:42.467Z,0
2017-05-21T00:03:23.087Z,0
2017-05-21T00:04:03.664Z,0
2017-05-21T00:04:44.297Z,0
2017-05-21T00:05:24.876Z,0
2017-05-21T00:06:05.450Z,0
2017-05-21T00:06:46.058Z,0
2017-05-21T00:07:26.663Z,0
2017-05-21T00:08:07.324Z,0
2017-05-21T00:08:47.907Z,0
2017-05-21T00:09:28.519Z,0
2017-05-21T00:10:09.098Z,0
2017-05-21T00:10:49.714Z,0
2017-05-21T00:11:30.322Z,0
2017-05-21T00:12:10.916Z,0
2017-05-21T00:12:51.536Z,0
2017-05-21T00:13:32.129Z,0
2017-05-21T00:14:12.718Z,0
2017-05-21T00:14:53.305Z,0
2017-05-21T00:15:33.888Z,0
2017-05-21T00:16:14.473Z,0
2017-05-21T00:16:55.039Z,0
2017-05-21T00:17:35.654Z,0
2017-05-21T00:18:16.230Z,0
2017-05-21T00:18:56.819Z,0
2017-05-21T00:19:37.407Z,0
2017-05-21T00:20:18.010Z,0
2017-05-21T00:20:58.591Z,0
2017-05-21T00:21:39.208Z,0
2017-05-21T00:22:19.801Z,0
2017-05-21T00:23:00.393Z,0
2017-05-21T00:23:40.989Z,0
2017-05-21T00:24:21.609Z,0
2017-05-21T00:25:02.201Z,0
2017-05-21T00:25:42.788Z,0
2017-05-21T00:26:23.371Z,0
2017-05-21T00:27:03.954Z,0
2017-05-21T00:27:44.526Z,0
2017-05-21T00:28:25.125Z,0
2017-05-21T00:29:05.729Z,0
2017-05-21T00:29:46.378Z,0
2017-05-21T00:30:26.963Z,0
2017-05-21T00:31:07.529Z,0
2017-05-21T00:31:48.106Z,0
2017-05-21T00:32:28.703Z,0
2017-05-21T00:33:09.334Z,0
2017-05-21T00:33:49.906Z,0
2017-05-21T00:34:30.488Z,0
2017-05-21T00:35:11.077Z,0
2017-05-21T00:35:51.648Z,0
2017-05-21T00:36:32.229Z,0
2017-05-21T00:37:12.811Z,0
2017-05-21T00:37:53.433Z,0
2017-05-21T00:38:34.018Z,0
2017-05-21T00:39:14.597Z,0
2017-05-21T00:39:55.194Z,0
2017-05-21T00:40:35.786Z,0
2017-05-21T00:41:16.384Z,0
2017-05-21T00:41:56.955Z,0
2017-05-21T00:42:37.524Z,0
2017-05-21T00:43:18.140Z,0
2017-05-21T00:43:58.755Z,0
2017-05-21T00:44:39.343Z,0
2017-05-21T00:45:19.914Z,0
2017-05-21T00:46:00.495Z,0
2017-05-21T00:46:41.098Z,0
2017-05-21T00:47:21.684Z,0
2017-05-21T00:48:02.258Z,0
2017-05-21T00:48:42.874Z,0
2017-05-21T00:49:23.476Z,0
2017-05-21T00:50:04.963Z,0
2017-05-21T00:50:45.525Z,0
2017-05-21T00:51:26.135Z,0
2017-05-21T00:52:06.731Z,0
2017-05-21T00:52:47.321Z,0
2017-05-21T00:53:27.938Z,0
2017-05-21T00:54:08.544Z,0
2017-05-21T00:54:49.138Z,0
2017-05-21T00:55:29.716Z,0
2017-05-21T00:56:10.299Z,0
2017-05-21T00:56:50.890Z,0
2017-05-21T00:57:31.479Z,0
2017-05-21T00:58:12.092Z,0
2017-05-21T00:58:52.727Z,0
2017-05-21T00:59:33.293Z,0
2017-05-21T01:00:13.882Z,0
2017-05-21T01:00:54.463Z,0
2017-05-21T01:01:35.029Z,0
2017-05-21T01:02:15.604Z,0
2017-05-21T01:02:56.228Z,0
2017-05-21T01:03:36.838Z,0
2017-05-21T01:04:17.456Z,0
2017-05-21T01:04:58.069Z,0
2017-05-21T01:05:38.641Z,0
2017-05-21T01:06:19.242Z,0
2017-05-21T01:06:59.855Z,0
2017-05-21T01:07:40.414Z,0
2017-05-21T01:08:21.002Z,0
2017-05-21T01:09:01.571Z,0
2017-05-21T01:09:42.165Z,0
2017-05-21T01:10:22.736Z,0
2017-05-21T01:11:03.309Z,0
2017-05-21T01:11:43.912Z,0
2017-05-21T01:12:24.489Z,0
2017-05-21T01:13:05.126Z,0
2017-05-21T01:13:45.706Z,0
2017-05-21T01:14:26.306Z,0
2017-05-21T01:15:06.876Z,0
2017-05-21T01:15:47.447Z,0
2017-05-21T01:16:28.015Z,0
2017-05-21T01:17:08.606Z,0
2017-05-21T01:17:49.230Z,0
2017-05-21T01:18:29.800Z,0
2017-05-21T01:19:10.383Z,0
2017-05-21T01:19:51.041Z,0
2017-05-21T01:20:31.631Z,0
2017-05-21T01:21:12.222Z,0
2017-05-21T01:21:52.794Z,0
2017-05-21T01:22:33.397Z,0
2017-05-21T01:23:14.020Z,0
2017-05-21T01:23:54.645Z,0
2017-05-21T01:24:35.236Z,0
2017-05-21T01:25:15.809Z,0
2017-05-21T01:25:56.419Z,0
2017-05-21T01:26:37.035Z,0
2017-05-21T01:27:17.607Z,0
2017-05-21T01:27:58.242Z,0
2017-05-21T01:28:38.829Z,0
2017-05-21T01:29:19.417Z,0
2017-05-21T01:29:59.992Z,0
2017-05-21T01:30:40.612Z,0
2017-05-21T01:31:21.205Z,0
2017-05-21T01:32:01.800Z,0
2017-05-21T01:32:42.398Z,0
2017-05-21T01:33:22.993Z,0
2017-05-21T01:34:03.553Z,0
2017-05-21T01:34:44.152Z,0
2017-05-21T01:35:24.719Z,0
2017-05-21T01:36:05.352Z,0
2017-05-21T01:36:45.943Z,0
2017-05-21T01:37:26.560Z,0
2017-05-21T01:38:07.178Z,0
2017-05-21T01:38:47.792Z,0
2017-05-21T01:39:28.362Z,0
2017-05-21T01:40:08.939Z,0
2017-05-21T01:40:49.522Z,0
2017-05-21T01:41:30.128Z,0
2017-05-21T01:42:10.757Z,0
2017-05-21T01:42:51.351Z,0
2017-05-21T01:43:32.004Z,0
2017-05-21T01:44:12.593Z,0
2017-05-21T01:44:53.191Z,0
2017-05-21T01:45:33.772Z,0
2017-05-21T01:46:14.355Z,0
2017-05-21T01:46:54.962Z,0
2017-05-21T01:47:35.569Z,0
2017-05-21T01:48:16.169Z,0
2017-05-21T01:48:56.859Z,0
2017-05-21T01:49:37.451Z,0
2017-05-21T01:50:18.059Z,0
2017-05-21T01:50:58.676Z,0
2017-05-21T01:51:39.236Z,0
2017-05-21T01:52:19.808Z,0
2017-05-21T01:53:00.397Z,0
2017-05-21T01:53:41.016Z,0
2017-05-21T01:54:21.668Z,0
2017-05-21T01:55:02.263Z,0
2017-05-21T01:55:42.851Z,0
2017-05-21T01:56:23.427Z,0
2017-05-21T01:57:04.035Z,0
2017-05-21T01:57:44.670Z,0
2017-05-21T01:58:25.242Z,0
2017-05-21T01:59:05.837Z,0
2017-05-21T01:59:46.440Z,0
2017-05-21T02:00:27.054Z,0
2017-05-21T02:01:07.624Z,0
2017-05-21T02:01:48.211Z,0
2017-05-21T02:02:28.799Z,0
2017-05-21T02:03:09.352Z,0
2017-05-21T02:03:49.929Z,0
2017-05-21T02:04:30.503Z,0
2017-05-21T02:05:11.119Z,0
2017-05-21T02:05:51.687Z,0
2017-05-21T02:06:32.274Z,0
2017-05-21T02:07:12.848Z,0
2017-05-21T02:07:53.442Z,0
2017-05-21T02:08:34.020Z,0
2017-05-21T02:09:14.595Z,0
2017-05-21T02:09:55.161Z,0
2017-05-21T02:10:35.726Z,0
2017-05-21T02:11:16.304Z,0
2017-05-21T02:11:56.885Z,0
2017-05-21T02:12:37.468Z,0
2017-05-21T02:13:18.054Z,0
2017-05-21T02:13:58.627Z,0
2017-05-21T02:14:39.221Z,0
2017-05-21T02:15:19.809Z,0
2017-05-21T02:16:00.393Z,0
2017-05-21T02:16:41.020Z,0
2017-05-21T02:17:21.540Z,0
2017-05-21T02:18:02.128Z,0
2017-05-21T02:18:42.703Z,0
2017-05-21T02:19:23.334Z,0
2017-05-21T02:20:04.141Z,0
2017-05-21T02:20:44.723Z,0
2017-05-21T02:21:25.301Z,0
2017-05-21T02:22:05.899Z,0
2017-05-21T02:22:46.494Z,0
2017-05-21T02:23:27.081Z,0
2017-05-21T02:24:07.648Z,0
2017-05-21T02:24:48.248Z,4
2017-05-21T02:25:28.848Z,4
2017-05-21T02:26:09.450Z,4
2017-05-21T02:26:50.031Z,4
2017-05-21T02:27:30.616Z,4
2017-05-21T02:28:11.206Z,0
2017-05-21T02:28:51.771Z,0
2017-05-21T02:29:32.348Z,4
2017-05-21T02:30:12.940Z,4
2017-05-21T02:30:53.547Z,4
2017-05-21T02:31:34.112Z,4
2017-05-21T02:32:14.709Z,4
2017-05-21T02:32:55.297Z,4
2017-05-21T02:33:35.887Z,4
2017-05-21T02:34:16.449Z,8
2017-05-21T02:34:57.021Z,4
2017-05-21T02:35:37.597Z,8
2017-05-21T02:36:18.183Z,8
2017-05-21T02:36:58.775Z,8
2017-05-21T02:37:39.351Z,8
2017-05-21T02:38:19.940Z,8
2017-05-21T02:39:00.521Z,12
2017-05-21T02:39:41.101Z,12
2017-05-21T02:40:21.737Z,12
2017-05-21T02:41:02.390Z,16
2017-05-21T02:41:42.918Z,16
2017-05-21T02:42:23.487Z,16
2017-05-21T02:43:04.063Z,16
2017-05-21T02:43:44.634Z,16
2017-05-21T02:44:25.212Z,20
2017-05-21T02:45:05.783Z,20
2017-05-21T02:45:46.372Z,24
2017-05-21T02:46:26.942Z,24
2017-05-21T02:47:07.584Z,24
2017-05-21T02:47:48.162Z,28
2017-05-21T02:48:28.747Z,28
2017-05-21T02:49:09.326Z,32
2017-05-21T02:49:49.912Z,32
2017-05-21T02:50:30.485Z,36
2017-05-21T02:51:11.097Z,36
2017-05-21T02:51:51.726Z,40
2017-05-21T02:52:32.291Z,44
2017-05-21T02:53:12.922Z,48
2017-05-21T02:53:53.457Z,48
2017-05-21T02:54:34.058Z,48
2017-05-21T02:55:14.633Z,52
2017-05-21T02:55:55.207Z,56
2017-05-21T02:56:35.781Z,64
2017-05-21T02:57:16.430Z,64
2017-05-21T02:57:57.037Z,68
2017-05-21T02:58:37.634Z,72
2017-05-21T02:59:18.201Z,76
2017-05-21T02:59:58.791Z,80
2017-05-21T03:00:39.385Z,84
2017-05-21T03:01:19.971Z,88
2017-05-21T03:02:00.558Z,92
2017-05-21T03:02:41.139Z,96
2017-05-21T03:03:21.759Z,100
2017-05-21T03:04:02.341Z,108
2017-05-21T03:04:42.918Z,116
2017-05-21T03:05:23.541Z,120
2017-05-21T03:06:04.116Z,128
2017-05-21T03:06:44.686Z,132
2017-05-21T03:07:25.335Z,140
2017-05-21T03:08:05.940Z,144
2017-05-21T03:08:46.534Z,152
2017-05-21T03:09:27.151Z,164
2017-05-21T03:10:07.748Z,168
2017-05-21T03:10:48.340Z,176
2017-05-21T03:11:28.922Z,188
2017-05-21T03:12:09.489Z,196
2017-05-21T03:12:50.063Z,204
2017-05-21T03:13:30.647Z,216
2017-05-21T03:14:11.240Z,228
2017-05-21T03:14:51.828Z,240
2017-05-21T03:15:32.414Z,248
2017-05-21T03:16:12.986Z,260
2017-05-21T03:16:53.566Z,272
2017-05-21T03:17:34.203Z,284
2017-05-21T03:18:14.780Z,296
2017-05-21T03:18:55.502Z,308
2017-05-21T03:19:36.094Z,320
2017-05-21T03:20:16.678Z,332
2017-05-21T03:20:57.255Z,340
2017-05-21T03:21:37.859Z,356
2017-05-21T03:22:18.443Z,368
2017-05-21T03:22:59.022Z,380
2017-05-21T03:23:39.588Z,392
2017-05-21T03:24:20.174Z,408
2017-05-21T03:25:00.750Z,420
2017-05-21T03:25:41.354Z,436
2017-05-21T03:26:21.956Z,452
2017-05-21T03:27:02.538Z,464
2017-05-21T03:27:43.142Z,480
2017-05-21T03:28:23.725Z,488
2017-05-21T03:29:04.309Z,504
2017-05-21T03:29:44.918Z,520
2017-05-21T03:30:25.517Z,536
2017-05-21T03:31:06.088Z,552
2017-05-21T03:31:46.675Z,572
2017-05-21T03:32:27.270Z,588
2017-05-21T03:33:07.857Z,604
2017-05-21T03:33:48.435Z,620
2017-05-21T03:34:29.011Z,636
2017-05-21T03:35:09.583Z,656
2017-05-21T03:35:50.178Z,672
2017-05-21T03:36:30.755Z,688
2017-05-21T03:37:11.352Z,708
2017-05-21T03:37:51.921Z,724
2017-05-21T03:38:32.493Z,744
2017-05-21T03:39:13.115Z,764
2017-05-21T03:39:53.711Z,780
2017-05-21T03:40:34.308Z,800
2017-05-21T03:41:14.902Z,820
2017-05-21T03:41:55.479Z,836
2017-05-21T03:42:36.053Z,856
2017-05-21T03:43:16.630Z,876
2017-05-21T03:43:57.227Z,896
2017-05-21T03:44:37.829Z,916
2017-05-21T03:45:18.412Z,940
2017-05-21T03:45:59.004Z,956
2017-05-21T03:46:39.593Z,976
2017-05-21T03:47:20.186Z,1000
2017-05-21T03:48:00.772Z,1028
2017-05-21T03:48:41.368Z,1060
2017-05-21T03:49:21.928Z,1092
2017-05-21T03:50:02.515Z,1116
2017-05-21T03:50:43.122Z,1144
2017-05-21T03:51:23.708Z,1168
2017-05-21T03:52:04.324Z,1192
2017-05-21T03:52:44.909Z,1204
2017-05-21T03:53:25.488Z,1232
2017-05-21T03:54:06.065Z,1256
2017-05-21T03:54:46.660Z,1276
2017-05-21T03:55:27.265Z,1308
2017-05-21T03:56:07.845Z,1332
2017-05-21T03:56:48.461Z,1356
2017-05-21T03:57:29.048Z,1384
2017-05-21T03:58:09.637Z,1412
2017-05-21T03:58:50.237Z,1432
2017-05-21T03:59:30.819Z,1448
2017-05-21T04:00:11.392Z,1476
2017-05-21T04:00:51.977Z,1504
2017-05-21T04:01:32.554Z,1532
2017-05-21T04:02:13.134Z,1564
2017-05-21T04:02:53.740Z,1596
2017-05-21T04:03:34.337Z,1616
2017-05-21T04:04:14.957Z,1640
2017-05-21T04:04:55.544Z,1668
2017-05-21T04:05:36.137Z,1704
2017-05-21T04:06:16.716Z,1732
2017-05-21T04:06:57.292Z,1756
2017-05-21T04:07:37.883Z,1776
2017-05-21T04:08:18.482Z,1792
2017-05-21T04:08:59.064Z,1808
2017-05-21T04:09:39.643Z,1836
2017-05-21T04:10:20.234Z,1872
2017-05-21T04:11:00.815Z,1916
2017-05-21T04:11:41.386Z,1968
2017-05-21T04:12:21.983Z,2004
2017-05-21T04:13:02.564Z,2032
2017-05-21T04:13:43.152Z,2056
2017-05-21T04:14:23.740Z,2080
2017-05-21T04:15:04.335Z,2104
2017-05-21T04:15:44.945Z,2120
2017-05-21T04:16:25.549Z,2136
2017-05-21T04:17:06.130Z,2156
2017-05-21T04:17:46.735Z,2188
2017-05-21T04:18:27.323Z,2224
2017-05-21T04:19:07.897Z,2252
2017-05-21T04:19:48.488Z,2284
2017-05-21T04:20:29.085Z,2324
2017-05-21T04:21:09.687Z,2360
2017-05-21T04:21:50.251Z,2392
2017-05-21T04:22:30.864Z,2424
2017-05-21T04:23:11.430Z,2448
2017-05-21T04:23:52.013Z,2468
2017-05-21T04:24:32.602Z,2500
2017-05-21T04:25:13.208Z,2528
2017-05-21T04:25:53.788Z,2552
2017-05-21T04:26:34.396Z,2572
2017-05-21T04:27:15.000Z,2596
2017-05-21T04:27:55.607Z,2636
2017-05-21T04:28:36.199Z,2680
2017-05-21T04:29:16.785Z,2724
2017-05-21T04:29:57.374Z,2764
2017-05-21T04:30:37.946Z,2808
2017-05-21T04:31:18.531Z,2832
2017-05-21T04:31:59.101Z,2852
2017-05-21T04:32:39.716Z,2888
2017-05-21T04:33:20.315Z,2920
2017-05-21T04:34:00.887Z,2960
2017-05-21T04:34:41.483Z,3004
2017-05-21T04:35:22.045Z,3032
2017-05-21T04:36:02.626Z,3056
2017-05-21T04:36:43.225Z,3080
2017-05-21T04:37:23.814Z,3116
2017-05-21T04:38:04.414Z,3164
2017-05-21T04:38:45.005Z,3220
2017-05-21T04:39:25.603Z,3272
2017-05-21T04:40:06.194Z,3328
2017-05-21T04:40:46.779Z,3376
2017-05-21T04:41:27.353Z,3416
2017-05-21T04:42:07.927Z,3452
2017-05-21T04:42:48.509Z,3472
2017-05-21T04:43:29.123Z,3492
2017-05-21T04:44:09.702Z,3524
2017-05-21T04:44:50.277Z,3568
2017-05-21T04:45:30.889Z,3616
2017-05-21T04:46:11.484Z,3660
2017-05-21T04:46:52.084Z,3708
2017-05-21T04:47:32.721Z,3740
2017-05-21T04:48:13.314Z,3772
2017-05-21T04:48:53.894Z,3796
2017-05-21T04:49:34.511Z,3816
2017-05-21T04:50:15.120Z,3848
2017-05-21T04:50:55.713Z,3872
2017-05-21T04:51:36.303Z,3904
2017-05-21T04:52:16.905Z,3936
2017-05-21T04:52:57.488Z,3972
2017-05-21T04:53:38.067Z,3992
2017-05-21T04:54:18.673Z,4016
2017-05-21T04:54:59.294Z,4052
2017-05-21T04:55:39.867Z,4084
2017-05-21T04:56:20.453Z,4140
2017-05-21T04:57:01.044Z,4212
2017-05-21T04:57:41.633Z,4280
2017-05-21T04:58:22.244Z,4348
2017-05-21T04:59:02.833Z,4412
2017-05-21T04:59:43.434Z,4460
2017-05-21T05:00:24.051Z,4484
2017-05-21T05:01:04.629Z,4508
2017-05-21T05:01:45.217Z,4532
2017-05-21T05:02:25.802Z,4560
2017-05-21T05:03:06.394Z,4592
2017-05-21T05:03:47.003Z,4640
2017-05-21T05:04:27.586Z,4692
2017-05-21T05:05:08.167Z,4724
2017-05-21T05:05:48.751Z,4744
2017-05-21T05:06:29.365Z,4744
2017-05-21T05:07:09.944Z,4748
2017-05-21T05:07:50.544Z,4784
2017-05-21T05:08:31.150Z,4832
2017-05-21T05:09:11.731Z,4864
2017-05-21T05:09:52.326Z,4888
2017-05-21T05:10:32.899Z,4912
2017-05-21T05:11:13.482Z,4908
2017-05-21T05:11:54.060Z,4924
2017-05-21T05:12:34.661Z,4948
2017-05-21T05:13:15.270Z,5012
2017-05-21T05:13:55.866Z,5060
2017-05-21T05:14:36.448Z,5104
2017-05-21T05:15:17.041Z,5148
2017-05-21T05:15:57.624Z,5196
2017-05-21T05:16:38.193Z,5252
2017-05-21T05:17:18.802Z,5328
2017-05-21T05:17:59.421Z,5388
2017-05-21T05:18:40.025Z,5456
2017-05-21T05:19:20.644Z,5508
2017-05-21T05:20:01.231Z,5552
2017-05-21T05:20:41.811Z,5600
2017-05-21T05:21:22.408Z,5640
2017-05-21T05:22:02.986Z,5708
2017-05-21T05:22:43.570Z,5780
2017-05-21T05:23:24.157Z,5864
2017-05-21T05:24:04.729Z,5968
2017-05-21T05:24:45.315Z,6088
2017-05-21T05:25:25.922Z,6212
2017-05-21T05:26:06.512Z,6320
2017-05-21T05:26:47.153Z,6384
2017-05-21T05:27:27.757Z,7488
2017-05-21T05:28:08.357Z,22464
2017-05-21T05:28:48.923Z,43232
2017-05-21T05:29:29.495Z,60032
2017-05-21T05:30:10.091Z,62848
2017-05-21T05:30:50.701Z,62304
2017-05-21T05:31:31.277Z,61248
2017-05-21T05:32:11.870Z,60800
2017-05-21T05:32:52.450Z,61184
2017-05-21T05:33:33.058Z,61952
2017-05-21T05:34:13.636Z,62336
2017-05-21T05:34:54.230Z,62208
2017-05-21T05:35:34.802Z,61280
2017-05-21T05:36:15.408Z,60352
2017-05-21T05:36:55.999Z,59808
2017-05-21T05:37:36.590Z,59680
2017-05-21T05:38:17.179Z,60928
2017-05-21T05:38:57.760Z,61408
2017-05-21T05:39:38.352Z,61440
2017-05-21T05:40:18.956Z,60096
2017-05-21T05:40:59.536Z,60704
2017-05-21T05:41:40.138Z,60416
2017-05-21T05:42:20.715Z,62080
2017-05-21T05:43:01.319Z,64736
2017-05-21T05:43:41.910Z,65920
2017-05-21T05:44:22.512Z,64800
2017-05-21T05:45:03.108Z,64800
2017-05-21T05:45:43.704Z,62592
2017-05-21T05:46:24.289Z,61184
2017-05-21T05:47:04.889Z,62816
2017-05-21T05:47:45.476Z,65312
2017-05-21T05:48:26.085Z,67264
2017-05-21T05:49:06.667Z,68768
2017-05-21T05:49:47.250Z,69728
2017-05-21T05:50:27.830Z,69536
2017-05-21T05:51:08.437Z,68864
2017-05-21T05:51:49.596Z,69024
2017-05-21T05:52:30.789Z,71232
2017-05-21T05:53:11.445Z,73216
2017-05-21T05:53:52.035Z,72768
2017-05-21T05:54:32.616Z,74016
2017-05-21T05:55:13.242Z,74784
2017-05-21T05:55:53.819Z,76896
2017-05-21T05:56:34.402Z,78560
2017-05-21T05:57:15.595Z,77216
2017-05-21T05:57:56.195Z,77280
2017-05-21T05:58:37.085Z,77440
2017-05-21T05:59:17.702Z,76384
2017-05-21T05:59:58.297Z,76960
2017-05-21T06:00:38.893Z,77312
2017-05-21T06:01:19.509Z,77312
2017-05-21T06:02:00.119Z,78048
2017-05-21T06:02:41.379Z,77632
2017-05-21T06:03:21.971Z,77248
2017-05-21T06:04:02.586Z,77408
2017-05-21T06:04:43.200Z,80640
2017-05-21T06:05:24.103Z,79040
2017-05-21T06:06:04.748Z,74784
2017-05-21T06:06:45.298Z,72064
2017-05-21T06:07:26.422Z,73920
2017-05-21T06:08:07.016Z,76704
2017-05-21T06:08:47.611Z,78720
2017-05-21T06:09:28.208Z,81888
2017-05-21T06:10:08.848Z,80256
2017-05-21T06:10:49.806Z,79712
2017-05-21T06:11:30.687Z,75520
2017-05-21T06:12:11.471Z,70688
2017-05-21T06:12:52.071Z,69824
2017-05-21T06:13:32.659Z,72928
2017-05-21T06:14:13.296Z,77312
2017-05-21T06:14:53.890Z,78400
2017-05-21T06:15:34.554Z,79008
2017-05-21T06:16:15.148Z,79232
2017-05-21T06:16:55.738Z,79104
2017-05-21T06:17:36.963Z,77088
2017-05-21T06:18:18.527Z,76192
2017-05-21T06:18:59.129Z,75840
2017-05-21T06:19:39.720Z,77248
2017-05-21T06:20:20.341Z,77728
2017-05-21T06:21:00.957Z,77568
2017-05-21T06:21:41.559Z,77312
2017-05-21T06:22:22.159Z,77024
2017-05-21T06:23:02.769Z,78880
2017-05-21T06:23:43.359Z,78592
2017-05-21T06:24:23.977Z,78048
2017-05-21T06:25:04.566Z,77280
2017-05-21T06:25:45.163Z,76320
2017-05-21T06:26:25.779Z,75744
2017-05-21T06:27:06.375Z,75072
2017-05-21T06:27:46.995Z,74240
2017-05-21T06:28:27.580Z,75520
2017-05-21T06:29:08.284Z,75744
2017-05-21T06:29:49.295Z,74144
2017-05-21T06:30:29.893Z,74048
2017-05-21T06:31:10.569Z,74112
2017-05-21T06:31:51.198Z,75456
2017-05-21T06:32:31.793Z,77760
2017-05-21T06:33:12.586Z,78496
2017-05-21T06:33:53.292Z,75584
2017-05-21T06:34:33.920Z,73632
2017-05-21T06:35:14.500Z,73952
2017-05-21T06:35:55.135Z,76608
2017-05-21T06:36:35.846Z,78880
2017-05-21T06:37:16.485Z,79520
2017-05-21T06:37:57.086Z,78784
2017-05-21T06:38:37.680Z,78560
2017-05-21T06:39:18.275Z,77056
2017-05-21T06:39:58.929Z,75552
2017-05-21T06:40:39.509Z,76416
2017-05-21T06:41:20.114Z,78144
2017-05-21T06:42:00.737Z,80224
2017-05-21T06:42:41.341Z,82208
2017-05-21T06:43:22.003Z,79264
2017-05-21T06:44:02.601Z,76672
2017-05-21T06:44:43.314Z,76000
2017-05-21T06:45:23.918Z,78112
2017-05-21T06:46:04.533Z,79456
2017-05-21T06:46:45.145Z,78720
2017-05-21T06:47:25.783Z,76736
2017-05-21T06:48:06.385Z,76448
2017-05-21T06:48:46.991Z,76096
2017-05-21T06:49:27.586Z,77440
2017-05-21T06:50:08.208Z,78400
2017-05-21T06:50:48.866Z,79424
2017-05-21T06:51:29.463Z,79424
2017-05-21T06:52:10.066Z,76288
2017-05-21T06:52:50.723Z,76256
2017-05-21T06:53:31.341Z,76928
2017-05-21T06:54:11.944Z,77088
2017-05-21T06:54:52.536Z,77216
2017-05-21T06:55:33.163Z,76992
2017-05-21T06:56:13.821Z,75808
2017-05-21T06:56:54.434Z,75392
2017-05-21T06:57:35.047Z,75104
2017-05-21T06:58:15.639Z,71392
2017-05-21T06:58:56.271Z,70944
2017-05-21T06:59:36.879Z,72832
2017-05-21T07:00:17.566Z,73472
2017-05-21T07:00:58.358Z,73248
2017-05-21T07:01:38.904Z,68608
2017-05-21T07:02:19.548Z,63296
2017-05-21T07:03:00.166Z,63392
2017-05-21T07:03:40.787Z,69568
2017-05-21T07:04:21.382Z,74368
2017-05-21T07:05:02.042Z,76192
2017-05-21T07:05:42.601Z,75424
2017-05-21T07:06:23.746Z,74656
2017-05-21T07:07:04.373Z,75616
2017-05-21T07:07:45.701Z,76992
2017-05-21T07:08:26.597Z,77184
2017-05-21T07:09:08.052Z,78016
2017-05-21T07:09:49.454Z,78912
2017-05-21T07:10:30.056Z,78976
2017-05-21T07:11:10.728Z,78528
2017-05-21T07:11:51.354Z,79872
2017-05-21T07:12:31.986Z,80128
2017-05-21T07:13:12.639Z,80416
2017-05-21T07:13:53.296Z,79744
2017-05-21T07:14:35.432Z,79712
2017-05-21T07:15:19.018Z,79520
2017-05-21T07:16:04.190Z,80160
2017-05-21T07:16:47.077Z,80544
2017-05-21T07:17:29.901Z,79680
2017-05-21T07:18:11.731Z,77504
2017-05-21T07:18:54.378Z,82912
2017-05-21T07:19:39.378Z,83200
2017-05-21T07:20:22.607Z,82688
2017-05-21T07:21:03.262Z,80800
2017-05-21T07:21:45.078Z,79488
2017-05-21T07:22:28.125Z,79744
2017-05-21T07:23:08.733Z,82688
2017-05-21T07:23:51.478Z,80384
2017-05-21T07:24:39.803Z,80896
2017-05-21T07:25:30.042Z,79232
2017-05-21T07:26:16.162Z,81696
2017-05-21T07:27:00.090Z,83584
2017-05-21T07:27:41.135Z,83488
2017-05-21T07:28:21.765Z,83872
2017-05-21T07:29:02.360Z,81056
2017-05-21T07:29:42.956Z,81056
2017-05-21T07:30:23.595Z,82176
2017-05-21T07:31:04.187Z,83168
2017-05-21T07:31:44.786Z,81632
2017-05-21T07:32:25.382Z,83296
2017-05-21T07:33:05.998Z,85504
2017-05-21T07:33:46.583Z,86144
2017-05-21T07:34:27.197Z,85440
2017-05-21T07:35:07.805Z,84224
2017-05-21T07:35:48.415Z,83520
2017-05-21T07:36:29.027Z,85760
2017-05-21T07:37:09.645Z,88864
2017-05-21T07:37:50.245Z,91488
2017-05-21T07:38:30.846Z,89344
2017-05-21T07:39:11.462Z,88576
2017-05-21T07:39:52.084Z,88224
2017-05-21T07:40:32.676Z,89248
2017-05-21T07:41:13.282Z,84384
2017-05-21T07:41:53.877Z,78368
2017-05-21T07:42:34.458Z,75040
2017-05-21T07:43:15.097Z,82112
2017-05-21T07:43:55.725Z,86592
2017-05-21T07:44:36.346Z,87424
2017-05-21T07:45:16.934Z,88576
2017-05-21T07:45:57.535Z,87040
2017-05-21T07:46:38.127Z,88192
2017-05-21T07:47:18.741Z,87424
2017-05-21T07:47:59.334Z,85344
2017-05-21T07:48:39.944Z,85696
2017-05-21T07:49:20.544Z,85248
2017-05-21T07:50:01.141Z,85664
2017-05-21T07:50:41.743Z,86592
2017-05-21T07:51:22.358Z,87168
2017-05-21T07:52:02.965Z,85536
2017-05-21T07:52:43.575Z,84416
2017-05-21T07:53:24.192Z,86720
2017-05-21T07:54:04.833Z,90112
2017-05-21T07:54:45.428Z,91232
2017-05-21T07:55:26.056Z,90336
2017-05-21T07:56:06.659Z,90048
2017-05-21T07:56:47.271Z,84352
2017-05-21T07:57:27.882Z,72864
2017-05-21T07:58:09.725Z,47872
2017-05-21T07:58:52.179Z,26048
2017-05-21T07:59:33.899Z,18400
2017-05-21T08:00:17.213Z,17856
2017-05-21T08:00:59.206Z,17376
2017-05-21T08:01:41.094Z,16896
2017-05-21T08:02:21.682Z,16480
2017-05-21T08:03:02.290Z,16000
2017-05-21T08:03:46.476Z,16032
2017-05-21T08:04:34.438Z,16192
2017-05-21T08:05:20.371Z,15808
2017-05-21T08:06:00.976Z,15584
2017-05-21T08:06:44.168Z,14884
2017-05-21T08:07:32.389Z,14704
2017-05-21T08:08:14.101Z,14412
2017-05-21T08:08:54.710Z,14076
2017-05-21T08:09:35.321Z,13964
2017-05-21T08:10:15.928Z,14052
2017-05-21T08:10:57.091Z,12624
2017-05-21T08:11:42.161Z,13692
2017-05-21T08:12:24.192Z,8828
2017-05-21T08:13:07.070Z,13192
2017-05-21T08:13:50.515Z,12844
2017-05-21T08:14:32.923Z,12532
2017-05-21T08:15:13.526Z,12312
2017-05-21T08:15:54.133Z,12112
2017-05-21T08:16:34.736Z,11868
2017-05-21T08:17:15.368Z,11672
2017-05-21T08:17:56.011Z,11464
2017-05-21T08:18:36.592Z,11320
2017-05-21T08:19:17.203Z,11112
2017-05-21T08:19:57.797Z,10996
2017-05-21T08:20:38.376Z,11144
2017-05-21T08:21:18.978Z,11040
2017-05-21T08:21:59.575Z,7040
2017-05-21T08:22:40.196Z,10844
2017-05-21T08:23:20.785Z,10760
2017-05-21T08:24:01.395Z,10556
2017-05-21T08:24:42.005Z,9628
2017-05-21T08:25:22.581Z,8068
2017-05-21T08:26:03.196Z,7056
2017-05-21T08:26:43.799Z,11476
2017-05-21T08:27:24.397Z,9300
2017-05-21T08:28:04.989Z,7788
2017-05-21T08:28:45.575Z,11748
2017-05-21T08:29:26.161Z,11704
2017-05-21T08:30:06.751Z,11636
2017-05-21T08:30:47.342Z,10976
2017-05-21T08:31:27.930Z,10280
2017-05-21T08:32:08.531Z,8868
2017-05-21T08:32:49.114Z,9836
2017-05-21T08:33:29.702Z,9668
2017-05-21T08:34:10.282Z,9672
2017-05-21T08:34:50.873Z,9796
2017-05-21T08:35:31.463Z,9672
2017-05-21T08:36:12.071Z,9716
2017-05-21T08:36:55.168Z,6764
2017-05-21T08:37:37.016Z,9656
2017-05-21T08:38:17.928Z,9708
2017-05-21T08:38:59.179Z,9720
2017-05-21T08:39:40.342Z,9864
2017-05-21T08:40:20.958Z,9904
2017-05-21T08:41:01.542Z,9884
2017-05-21T08:41:42.141Z,9828
2017-05-21T08:42:22.736Z,9840
2017-05-21T08:43:04.218Z,9764
2017-05-21T08:43:47.576Z,9744
2017-05-21T08:44:28.209Z,9880
2017-05-21T08:45:08.797Z,7572
2017-05-21T08:45:49.397Z,9712
2017-05-21T08:46:29.995Z,9644
2017-05-21T08:47:11.529Z,9880
2017-05-21T08:47:52.098Z,10024
2017-05-21T08:48:32.687Z,10292
2017-05-21T08:49:13.336Z,10652
2017-05-21T08:49:53.963Z,10872
2017-05-21T08:50:34.524Z,10752
2017-05-21T08:51:15.152Z,10220
2017-05-21T08:51:55.739Z,9088
2017-05-21T08:52:36.349Z,8816
2017-05-21T08:53:16.946Z,8920
2017-05-21T08:53:57.568Z,9084
2017-05-21T08:54:38.163Z,9240
2017-05-21T08:55:18.729Z,9276
2017-05-21T08:55:59.302Z,8964
2017-05-21T08:56:39.913Z,8532
2017-05-21T08:57:20.529Z,8412
2017-05-21T08:58:01.108Z,8632
2017-05-21T08:58:41.716Z,8832
2017-05-21T08:59:22.326Z,9024
2017-05-21T09:00:02.912Z,9232
2017-05-21T09:00:43.519Z,9380
2017-05-21T09:01:24.105Z,9456
2017-05-21T09:02:04.679Z,9272
2017-05-21T09:02:45.272Z,7912
2017-05-21T09:03:25.913Z,7736
2017-05-21T09:04:06.503Z,9020
2017-05-21T09:04:47.117Z,7168
2017-05-21T09:05:27.698Z,8428
2017-05-21T09:06:08.302Z,8016
2017-05-21T09:06:48.918Z,7836
2017-05-21T09:07:29.507Z,7896
2017-05-21T09:08:10.111Z,7712
2017-05-21T09:08:50.733Z,7456
2017-05-21T09:09:31.318Z,7408
2017-05-21T09:10:11.891Z,7404
2017-05-21T09:10:52.476Z,7380
2017-05-21T09:11:33.065Z,7296
2017-05-21T09:12:13.646Z,7168
2017-05-21T09:12:54.232Z,7264
2017-05-21T09:13:34.820Z,7652
2017-05-21T09:14:15.396Z,7924
2017-05-21T09:14:55.982Z,7848